sensor_id;sensor_type;location;lat;lon;timestamp;P1;durP1;ratioP1;P2;durP2;ratioP2
9459;SDS011;4768;42.664;23.240;2023-05-29T00:01:42;2.13;;;1.70;;
9459;SDS011;4768;42.664;23.240;2023-05-29T00:04:08;2.23;;;2.03;;
9459;SDS011;4768;42.664;23.240;2023-05-29T00:06:35;3.07;;;1.87;;
9459;SDS011;4768;42.664;23.240;2023-05-29T00:09:03;3.00;;;1.90;;
9459;SDS011;4768;42.664;23.240;2023-05-29T00:11:30;3.77;;;2.40;;
9459;SDS011;4768;42.664;23.240;2023-05-29T00:13:57;4.17;;;2.10;;
9459;SDS011;4768;42.664;23.240;2023-05-29T00:16:24;3.07;;;1.70;;
9459;SDS011;4768;42.664;23.240;2023-05-29T00:18:50;3.83;;;2.13;;
9459;SDS011;4768;42.664;23.240;2023-05-29T00:21:18;2.83;;;2.13;;
9459;SDS011;4768;42.664;23.240;2023-05-29T00:23:45;3.60;;;2.20;;
9459;SDS011;4768;42.664;23.240;2023-05-29T00:26:15;3.30;;;2.30;;
9459;SDS011;4768;42.664;23.240;2023-05-29T00:28:42;1.93;;;1.60;;
9459;SDS011;4768;42.664;23.240;2023-05-29T00:31:08;3.30;;;2.50;;
9459;SDS011;4768;42.664;23.240;2023-05-29T00:33:36;3.17;;;2.33;;
9459;SDS011;4768;42.664;23.240;2023-05-29T00:36:03;3.30;;;2.10;;
9459;SDS011;4768;42.664;23.240;2023-05-29T00:38:30;2.87;;;2.07;;
9459;SDS011;4768;42.664;23.240;2023-05-29T00:40:57;2.53;;;2.20;;
9459;SDS011;4768;42.664;23.240;2023-05-29T00:43:25;2.87;;;2.47;;
9459;SDS011;4768;42.664;23.240;2023-05-29T00:45:52;2.87;;;2.17;;
9459;SDS011;4768;42.664;23.240;2023-05-29T00:48:19;1.93;;;1.73;;
9459;SDS011;4768;42.664;23.240;2023-05-29T00:50:46;5.40;;;2.10;;
9459;SDS011;4768;42.664;23.240;2023-05-29T00:53:13;2.33;;;1.90;;
9459;SDS011;4768;42.664;23.240;2023-05-29T00:55:40;3.17;;;2.00;;
9459;SDS011;4768;42.664;23.240;2023-05-29T00:58:07;2.17;;;1.93;;
9459;SDS011;4768;42.664;23.240;2023-05-29T01:00:36;5.30;;;2.17;;
9459;SDS011;4768;42.664;23.240;2023-05-29T01:03:04;3.53;;;2.53;;
9459;SDS011;4768;42.664;23.240;2023-05-29T01:05:33;5.33;;;2.23;;
9459;SDS011;4768;42.664;23.240;2023-05-29T01:08:00;3.00;;;1.90;;
9459;SDS011;4768;42.664;23.240;2023-05-29T01:10:27;4.57;;;2.37;;
9459;SDS011;4768;42.664;23.240;2023-05-29T01:12:56;2.47;;;1.70;;
9459;SDS011;4768;42.664;23.240;2023-05-29T01:15:30;2.87;;;2.23;;
9459;SDS011;4768;42.664;23.240;2023-05-29T01:18:19;3.40;;;2.17;;
9459;SDS011;4768;42.664;23.240;2023-05-29T01:20:55;2.53;;;2.20;;
9459;SDS011;4768;42.664;23.240;2023-05-29T01:26:51;2.27;;;1.87;;
9459;SDS011;4768;42.664;23.240;2023-05-29T01:29:22;2.27;;;1.90;;
9459;SDS011;4768;42.664;23.240;2023-05-29T01:31:51;2.63;;;2.10;;
9459;SDS011;4768;42.664;23.240;2023-05-29T01:34:19;2.83;;;1.90;;
9459;SDS011;4768;42.664;23.240;2023-05-29T01:36:46;3.00;;;2.33;;
9459;SDS011;4768;42.664;23.240;2023-05-29T01:39:13;2.43;;;2.03;;
9459;SDS011;4768;42.664;23.240;2023-05-29T01:41:40;2.83;;;2.40;;
9459;SDS011;4768;42.664;23.240;2023-05-29T01:44:11;3.03;;;2.27;;
9459;SDS011;4768;42.664;23.240;2023-05-29T01:46:38;2.97;;;2.10;;
9459;SDS011;4768;42.664;23.240;2023-05-29T01:49:07;3.93;;;2.57;;
9459;SDS011;4768;42.664;23.240;2023-05-29T01:51:35;2.30;;;2.07;;
9459;SDS011;4768;42.664;23.240;2023-05-29T01:54:02;3.13;;;2.10;;
9459;SDS011;4768;42.664;23.240;2023-05-29T01:56:29;2.83;;;1.80;;
9459;SDS011;4768;42.664;23.240;2023-05-29T01:58:57;2.07;;;1.87;;
9459;SDS011;4768;42.664;23.240;2023-05-29T02:01:26;3.03;;;2.37;;
9459;SDS011;4768;42.664;23.240;2023-05-29T02:03:53;2.30;;;2.10;;
9459;SDS011;4768;42.664;23.240;2023-05-29T02:06:20;2.47;;;2.27;;
9459;SDS011;4768;42.664;23.240;2023-05-29T02:08:47;3.23;;;2.20;;
9459;SDS011;4768;42.664;23.240;2023-05-29T02:11:14;2.57;;;2.27;;
9459;SDS011;4768;42.664;23.240;2023-05-29T02:13:41;2.20;;;2.00;;
9459;SDS011;4768;42.664;23.240;2023-05-29T02:16:07;4.87;;;2.53;;
9459;SDS011;4768;42.664;23.240;2023-05-29T02:18:36;3.77;;;2.80;;
9459;SDS011;4768;42.664;23.240;2023-05-29T02:21:02;4.83;;;3.67;;
9459;SDS011;4768;42.664;23.240;2023-05-29T02:23:29;24.03;;;16.83;;
9459;SDS011;4768;42.664;23.240;2023-05-29T02:25:56;13.27;;;9.30;;
9459;SDS011;4768;42.664;23.240;2023-05-29T02:28:22;35.03;;;24.57;;
9459;SDS011;4768;42.664;23.240;2023-05-29T02:30:50;20.57;;;15.13;;
9459;SDS011;4768;42.664;23.240;2023-05-29T02:33:16;4.30;;;3.53;;
9459;SDS011;4768;42.664;23.240;2023-05-29T02:35:44;5.90;;;2.60;;
9459;SDS011;4768;42.664;23.240;2023-05-29T02:38:11;3.43;;;2.70;;
9459;SDS011;4768;42.664;23.240;2023-05-29T02:40:38;2.90;;;2.50;;
9459;SDS011;4768;42.664;23.240;2023-05-29T02:43:05;3.50;;;2.70;;
9459;SDS011;4768;42.664;23.240;2023-05-29T02:45:32;2.83;;;2.53;;
9459;SDS011;4768;42.664;23.240;2023-05-29T02:47:59;3.60;;;2.57;;
9459;SDS011;4768;42.664;23.240;2023-05-29T02:50:25;4.23;;;2.83;;
9459;SDS011;4768;42.664;23.240;2023-05-29T02:52:54;3.83;;;2.90;;
9459;SDS011;4768;42.664;23.240;2023-05-29T02:55:21;4.17;;;2.83;;
9459;SDS011;4768;42.664;23.240;2023-05-29T02:57:47;4.33;;;3.13;;
9459;SDS011;4768;42.664;23.240;2023-05-29T03:00:18;4.83;;;3.40;;
9459;SDS011;4768;42.664;23.240;2023-05-29T03:02:45;3.33;;;2.83;;
9459;SDS011;4768;42.664;23.240;2023-05-29T03:05:12;6.57;;;3.73;;
9459;SDS011;4768;42.664;23.240;2023-05-29T03:07:39;3.77;;;2.93;;
9459;SDS011;4768;42.664;23.240;2023-05-29T03:10:07;5.50;;;4.30;;
9459;SDS011;4768;42.664;23.240;2023-05-29T03:12:35;4.43;;;3.43;;
9459;SDS011;4768;42.664;23.240;2023-05-29T03:15:01;4.77;;;3.07;;
9459;SDS011;4768;42.664;23.240;2023-05-29T03:17:28;4.53;;;3.53;;
9459;SDS011;4768;42.664;23.240;2023-05-29T03:19:55;6.83;;;3.57;;
9459;SDS011;4768;42.664;23.240;2023-05-29T03:22:22;4.33;;;2.80;;
9459;SDS011;4768;42.664;23.240;2023-05-29T03:24:49;4.20;;;3.20;;
9459;SDS011;4768;42.664;23.240;2023-05-29T03:27:17;5.63;;;3.53;;
9459;SDS011;4768;42.664;23.240;2023-05-29T03:29:44;4.17;;;3.33;;
9459;SDS011;4768;42.664;23.240;2023-05-29T03:32:10;5.83;;;3.03;;
9459;SDS011;4768;42.664;23.240;2023-05-29T03:34:37;3.87;;;3.00;;
9459;SDS011;4768;42.664;23.240;2023-05-29T03:37:05;4.73;;;2.97;;
9459;SDS011;4768;42.664;23.240;2023-05-29T03:39:32;3.57;;;2.57;;
9459;SDS011;4768;42.664;23.240;2023-05-29T03:41:58;4.20;;;2.87;;
9459;SDS011;4768;42.664;23.240;2023-05-29T03:44:26;3.23;;;2.80;;
9459;SDS011;4768;42.664;23.240;2023-05-29T03:46:53;7.03;;;2.87;;
9459;SDS011;4768;42.664;23.240;2023-05-29T03:49:20;3.33;;;2.67;;
9459;SDS011;4768;42.664;23.240;2023-05-29T03:51:47;3.50;;;2.80;;
9459;SDS011;4768;42.664;23.240;2023-05-29T03:54:13;4.03;;;3.13;;
9459;SDS011;4768;42.664;23.240;2023-05-29T03:56:40;4.40;;;3.17;;
9459;SDS011;4768;42.664;23.240;2023-05-29T03:59:07;5.20;;;3.00;;
9459;SDS011;4768;42.664;23.240;2023-05-29T04:01:35;4.00;;;3.10;;
9459;SDS011;4768;42.664;23.240;2023-05-29T04:04:01;3.63;;;3.10;;
9459;SDS011;4768;42.664;23.240;2023-05-29T04:06:28;5.17;;;3.37;;
9459;SDS011;4768;42.664;23.240;2023-05-29T04:08:55;3.17;;;2.57;;
9459;SDS011;4768;42.664;23.240;2023-05-29T04:11:22;5.37;;;2.40;;
9459;SDS011;4768;42.664;23.240;2023-05-29T04:13:49;4.43;;;3.10;;
9459;SDS011;4768;42.664;23.240;2023-05-29T04:16:15;3.70;;;2.80;;
9459;SDS011;4768;42.664;23.240;2023-05-29T04:18:43;4.20;;;3.17;;
9459;SDS011;4768;42.664;23.240;2023-05-29T04:21:10;3.90;;;2.80;;
9459;SDS011;4768;42.664;23.240;2023-05-29T04:23:37;6.10;;;3.07;;
9459;SDS011;4768;42.664;23.240;2023-05-29T04:26:04;3.90;;;2.87;;
9459;SDS011;4768;42.664;23.240;2023-05-29T04:28:31;4.27;;;3.03;;
9459;SDS011;4768;42.664;23.240;2023-05-29T04:30:58;3.70;;;2.90;;
9459;SDS011;4768;42.664;23.240;2023-05-29T04:33:25;4.33;;;3.27;;
9459;SDS011;4768;42.664;23.240;2023-05-29T04:35:54;4.63;;;3.20;;
9459;SDS011;4768;42.664;23.240;2023-05-29T04:38:21;4.60;;;3.30;;
9459;SDS011;4768;42.664;23.240;2023-05-29T04:40:50;4.53;;;3.37;;
9459;SDS011;4768;42.664;23.240;2023-05-29T04:43:17;5.87;;;3.40;;
9459;SDS011;4768;42.664;23.240;2023-05-29T04:45:44;5.17;;;3.83;;
9459;SDS011;4768;42.664;23.240;2023-05-29T04:48:11;5.63;;;4.03;;
9459;SDS011;4768;42.664;23.240;2023-05-29T04:50:37;5.17;;;3.63;;
9459;SDS011;4768;42.664;23.240;2023-05-29T04:53:05;5.80;;;3.53;;
9459;SDS011;4768;42.664;23.240;2023-05-29T04:55:32;5.70;;;3.77;;
9459;SDS011;4768;42.664;23.240;2023-05-29T04:57:59;4.70;;;3.30;;
9459;SDS011;4768;42.664;23.240;2023-05-29T05:00:26;4.97;;;3.40;;
9459;SDS011;4768;42.664;23.240;2023-05-29T05:02:53;4.17;;;3.47;;
9459;SDS011;4768;42.664;23.240;2023-05-29T05:05:20;5.33;;;3.40;;
9459;SDS011;4768;42.664;23.240;2023-05-29T05:07:47;5.07;;;3.53;;
9459;SDS011;4768;42.664;23.240;2023-05-29T05:10:15;4.33;;;3.03;;
9459;SDS011;4768;42.664;23.240;2023-05-29T05:12:42;7.73;;;3.27;;
9459;SDS011;4768;42.664;23.240;2023-05-29T05:15:09;4.43;;;3.03;;
9459;SDS011;4768;42.664;23.240;2023-05-29T05:17:36;4.00;;;2.80;;
9459;SDS011;4768;42.664;23.240;2023-05-29T05:20:03;5.20;;;3.83;;
9459;SDS011;4768;42.664;23.240;2023-05-29T05:22:31;11.40;;;4.67;;
9459;SDS011;4768;42.664;23.240;2023-05-29T05:24:57;5.57;;;4.27;;
9459;SDS011;4768;42.664;23.240;2023-05-29T05:27:26;5.67;;;4.10;;
9459;SDS011;4768;42.664;23.240;2023-05-29T05:29:53;5.57;;;3.90;;
9459;SDS011;4768;42.664;23.240;2023-05-29T05:32:20;6.73;;;4.10;;
9459;SDS011;4768;42.664;23.240;2023-05-29T05:34:47;5.97;;;3.90;;
9459;SDS011;4768;42.664;23.240;2023-05-29T05:37:13;6.13;;;4.10;;
9459;SDS011;4768;42.664;23.240;2023-05-29T05:39:40;6.50;;;4.00;;
9459;SDS011;4768;42.664;23.240;2023-05-29T05:42:07;6.77;;;4.30;;
9459;SDS011;4768;42.664;23.240;2023-05-29T05:44:35;6.63;;;3.50;;
9459;SDS011;4768;42.664;23.240;2023-05-29T05:47:01;5.03;;;3.50;;
9459;SDS011;4768;42.664;23.240;2023-05-29T05:49:29;5.63;;;4.23;;
9459;SDS011;4768;42.664;23.240;2023-05-29T05:51:55;7.10;;;4.80;;
9459;SDS011;4768;42.664;23.240;2023-05-29T05:54:22;5.50;;;4.10;;
9459;SDS011;4768;42.664;23.240;2023-05-29T05:56:49;5.33;;;3.97;;
9459;SDS011;4768;42.664;23.240;2023-05-29T05:59:15;4.17;;;3.20;;
9459;SDS011;4768;42.664;23.240;2023-05-29T06:01:43;6.47;;;4.37;;
9459;SDS011;4768;42.664;23.240;2023-05-29T06:04:10;5.50;;;4.27;;
9459;SDS011;4768;42.664;23.240;2023-05-29T06:06:37;6.63;;;4.33;;
9459;SDS011;4768;42.664;23.240;2023-05-29T06:09:04;5.63;;;3.77;;
9459;SDS011;4768;42.664;23.240;2023-05-29T06:11:31;3.90;;;3.30;;
9459;SDS011;4768;42.664;23.240;2023-05-29T06:13:58;6.67;;;3.23;;
9459;SDS011;4768;42.664;23.240;2023-05-29T06:16:24;3.60;;;2.90;;
9459;SDS011;4768;42.664;23.240;2023-05-29T06:18:53;3.97;;;2.73;;
9459;SDS011;4768;42.664;23.240;2023-05-29T06:21:20;8.23;;;3.23;;
9459;SDS011;4768;42.664;23.240;2023-05-29T06:23:47;7.03;;;2.83;;
9459;SDS011;4768;42.664;23.240;2023-05-29T06:26:14;3.97;;;3.20;;
9459;SDS011;4768;42.664;23.240;2023-05-29T06:28:41;3.47;;;2.83;;
9459;SDS011;4768;42.664;23.240;2023-05-29T06:31:07;4.73;;;3.63;;
9459;SDS011;4768;42.664;23.240;2023-05-29T06:33:35;6.80;;;3.83;;
9459;SDS011;4768;42.664;23.240;2023-05-29T06:36:03;4.43;;;3.43;;
9459;SDS011;4768;42.664;23.240;2023-05-29T06:38:30;4.77;;;3.33;;
9459;SDS011;4768;42.664;23.240;2023-05-29T06:40:57;4.20;;;3.07;;
9459;SDS011;4768;42.664;23.240;2023-05-29T06:43:23;5.77;;;2.90;;
9459;SDS011;4768;42.664;23.240;2023-05-29T06:45:50;3.60;;;2.80;;
9459;SDS011;4768;42.664;23.240;2023-05-29T06:48:17;4.30;;;2.93;;
9459;SDS011;4768;42.664;23.240;2023-05-29T06:50:44;4.27;;;2.80;;
9459;SDS011;4768;42.664;23.240;2023-05-29T06:53:12;3.63;;;2.80;;
9459;SDS011;4768;42.664;23.240;2023-05-29T06:55:38;2.93;;;2.30;;
9459;SDS011;4768;42.664;23.240;2023-05-29T06:58:06;2.80;;;2.37;;
9459;SDS011;4768;42.664;23.240;2023-05-29T07:00:33;2.53;;;2.07;;
9459;SDS011;4768;42.664;23.240;2023-05-29T07:02:59;3.03;;;1.90;;
9459;SDS011;4768;42.664;23.240;2023-05-29T07:05:26;2.60;;;2.03;;
9459;SDS011;4768;42.664;23.240;2023-05-29T07:07:53;3.23;;;2.47;;
9459;SDS011;4768;42.664;23.240;2023-05-29T07:10:21;2.47;;;2.27;;
9459;SDS011;4768;42.664;23.240;2023-05-29T07:12:48;3.10;;;1.93;;
9459;SDS011;4768;42.664;23.240;2023-05-29T07:15:14;2.73;;;1.90;;
9459;SDS011;4768;42.664;23.240;2023-05-29T07:17:41;1.97;;;1.53;;
9459;SDS011;4768;42.664;23.240;2023-05-29T07:20:08;1.90;;;1.70;;
9459;SDS011;4768;42.664;23.240;2023-05-29T07:22:35;3.20;;;2.00;;
9459;SDS011;4768;42.664;23.240;2023-05-29T07:25:02;1.83;;;1.73;;
9459;SDS011;4768;42.664;23.240;2023-05-29T07:27:31;3.90;;;1.90;;
9459;SDS011;4768;42.664;23.240;2023-05-29T07:29:57;2.30;;;1.87;;
9459;SDS011;4768;42.664;23.240;2023-05-29T07:32:24;2.07;;;1.40;;
9459;SDS011;4768;42.664;23.240;2023-05-29T07:34:51;2.43;;;1.67;;
9459;SDS011;4768;42.664;23.240;2023-05-29T07:37:17;3.73;;;1.60;;
9459;SDS011;4768;42.664;23.240;2023-05-29T07:39:44;1.67;;;1.53;;
9459;SDS011;4768;42.664;23.240;2023-05-29T07:42:11;1.97;;;1.70;;
9459;SDS011;4768;42.664;23.240;2023-05-29T07:44:39;2.43;;;1.60;;
9459;SDS011;4768;42.664;23.240;2023-05-29T07:47:07;2.47;;;1.73;;
9459;SDS011;4768;42.664;23.240;2023-05-29T07:49:33;2.33;;;1.40;;
9459;SDS011;4768;42.664;23.240;2023-05-29T07:52:00;2.00;;;1.70;;
9459;SDS011;4768;42.664;23.240;2023-05-29T07:54:27;1.40;;;1.20;;
9459;SDS011;4768;42.664;23.240;2023-05-29T07:56:54;4.87;;;1.73;;
9459;SDS011;4768;42.664;23.240;2023-05-29T07:59:21;3.13;;;1.40;;
9459;SDS011;4768;42.664;23.240;2023-05-29T08:01:49;3.50;;;1.30;;
9459;SDS011;4768;42.664;23.240;2023-05-29T08:04:16;1.40;;;1.30;;
9459;SDS011;4768;42.664;23.240;2023-05-29T08:06:43;2.83;;;1.50;;
9459;SDS011;4768;42.664;23.240;2023-05-29T08:09:10;2.23;;;1.50;;
9459;SDS011;4768;42.664;23.240;2023-05-29T08:11:36;1.30;;;1.20;;
9459;SDS011;4768;42.664;23.240;2023-05-29T08:14:03;0.90;;;0.90;;
9459;SDS011;4768;42.664;23.240;2023-05-29T08:16:30;1.30;;;1.20;;
9459;SDS011;4768;42.664;23.240;2023-05-29T08:18:58;1.43;;;1.33;;
9459;SDS011;4768;42.664;23.240;2023-05-29T08:21:25;1.73;;;1.63;;
9459;SDS011;4768;42.664;23.240;2023-05-29T08:23:52;3.00;;;1.80;;
9459;SDS011;4768;42.664;23.240;2023-05-29T08:26:19;2.87;;;1.80;;
9459;SDS011;4768;42.664;23.240;2023-05-29T08:28:45;2.23;;;1.50;;
9459;SDS011;4768;42.664;23.240;2023-05-29T08:31:12;1.53;;;1.43;;
9459;SDS011;4768;42.664;23.240;2023-05-29T08:33:39;1.63;;;1.53;;
9459;SDS011;4768;42.664;23.240;2023-05-29T08:36:07;2.53;;;1.63;;
9459;SDS011;4768;42.664;23.240;2023-05-29T08:38:34;1.57;;;1.30;;
9459;SDS011;4768;42.664;23.240;2023-05-29T08:41:01;1.30;;;1.20;;
9459;SDS011;4768;42.664;23.240;2023-05-29T08:43:30;1.63;;;1.27;;
9459;SDS011;4768;42.664;23.240;2023-05-29T08:45:59;1.30;;;1.20;;
9459;SDS011;4768;42.664;23.240;2023-05-29T08:48:27;1.70;;;1.50;;
9459;SDS011;4768;42.664;23.240;2023-05-29T08:50:55;1.23;;;1.00;;
9459;SDS011;4768;42.664;23.240;2023-05-29T08:53:25;1.77;;;1.27;;
9459;SDS011;4768;42.664;23.240;2023-05-29T08:55:52;1.47;;;1.37;;
9459;SDS011;4768;42.664;23.240;2023-05-29T08:58:20;1.60;;;1.50;;
9459;SDS011;4768;42.664;23.240;2023-05-29T09:00:48;2.33;;;1.70;;
9459;SDS011;4768;42.664;23.240;2023-05-29T09:03:15;2.03;;;1.50;;
9459;SDS011;4768;42.664;23.240;2023-05-29T09:05:42;1.70;;;1.60;;
9459;SDS011;4768;42.664;23.240;2023-05-29T09:08:11;2.17;;;1.60;;
9459;SDS011;4768;42.664;23.240;2023-05-29T09:10:39;2.00;;;1.50;;
9459;SDS011;4768;42.664;23.240;2023-05-29T09:13:08;1.80;;;1.50;;
9459;SDS011;4768;42.664;23.240;2023-05-29T09:15:36;1.53;;;1.40;;
9459;SDS011;4768;42.664;23.240;2023-05-29T09:18:05;1.83;;;1.40;;
9459;SDS011;4768;42.664;23.240;2023-05-29T09:20:32;3.13;;;1.90;;
9459;SDS011;4768;42.664;23.240;2023-05-29T09:23:00;1.33;;;1.20;;
9459;SDS011;4768;42.664;23.240;2023-05-29T09:25:27;1.50;;;1.30;;
9459;SDS011;4768;42.664;23.240;2023-05-29T09:27:59;2.93;;;1.57;;
9459;SDS011;4768;42.664;23.240;2023-05-29T09:30:31;1.90;;;1.70;;
9459;SDS011;4768;42.664;23.240;2023-05-29T09:32:59;2.33;;;1.80;;
9459;SDS011;4768;42.664;23.240;2023-05-29T09:35:32;1.63;;;1.53;;
9459;SDS011;4768;42.664;23.240;2023-05-29T09:38:02;3.60;;;1.40;;
9459;SDS011;4768;42.664;23.240;2023-05-29T09:40:29;1.50;;;1.40;;
9459;SDS011;4768;42.664;23.240;2023-05-29T09:43:03;1.33;;;1.23;;
9459;SDS011;4768;42.664;23.240;2023-05-29T09:45:36;1.73;;;1.60;;
9459;SDS011;4768;42.664;23.240;2023-05-29T09:48:04;2.33;;;1.60;;
9459;SDS011;4768;42.664;23.240;2023-05-29T09:50:32;3.00;;;2.07;;
9459;SDS011;4768;42.664;23.240;2023-05-29T09:53:00;1.73;;;1.50;;
9459;SDS011;4768;42.664;23.240;2023-05-29T09:55:28;1.97;;;1.57;;
9459;SDS011;4768;42.664;23.240;2023-05-29T09:57:57;2.40;;;1.93;;
9459;SDS011;4768;42.664;23.240;2023-05-29T10:00:26;2.77;;;1.67;;
9459;SDS011;4768;42.664;23.240;2023-05-29T10:02:56;2.10;;;1.60;;
9459;SDS011;4768;42.664;23.240;2023-05-29T10:05:22;2.87;;;2.00;;
9459;SDS011;4768;42.664;23.240;2023-05-29T10:07:49;2.63;;;2.00;;
9459;SDS011;4768;42.664;23.240;2023-05-29T10:10:20;2.23;;;1.83;;
9459;SDS011;4768;42.664;23.240;2023-05-29T10:12:49;1.93;;;1.80;;
9459;SDS011;4768;42.664;23.240;2023-05-29T10:15:17;2.33;;;1.97;;
9459;SDS011;4768;42.664;23.240;2023-05-29T10:17:52;3.90;;;1.67;;
9459;SDS011;4768;42.664;23.240;2023-05-29T10:20:25;3.20;;;1.83;;
9459;SDS011;4768;42.664;23.240;2023-05-29T10:22:54;2.27;;;1.77;;
9459;SDS011;4768;42.664;23.240;2023-05-29T10:25:22;3.40;;;2.00;;
9459;SDS011;4768;42.664;23.240;2023-05-29T10:27:53;1.77;;;1.40;;
9459;SDS011;4768;42.664;23.240;2023-05-29T10:30:25;1.87;;;1.50;;
9459;SDS011;4768;42.664;23.240;2023-05-29T10:33:18;2.63;;;2.00;;
9459;SDS011;4768;42.664;23.240;2023-05-29T10:35:55;2.70;;;1.70;;
9459;SDS011;4768;42.664;23.240;2023-05-29T10:38:30;4.10;;;2.17;;
9459;SDS011;4768;42.664;23.240;2023-05-29T10:41:09;3.77;;;2.17;;
9459;SDS011;4768;42.664;23.240;2023-05-29T10:43:55;2.50;;;2.00;;
9459;SDS011;4768;42.664;23.240;2023-05-29T10:46:37;2.00;;;1.73;;
9459;SDS011;4768;42.664;23.240;2023-05-29T10:49:32;1.97;;;1.50;;
9459;SDS011;4768;42.664;23.240;2023-05-29T10:51:59;3.00;;;1.80;;
9459;SDS011;4768;42.664;23.240;2023-05-29T10:54:26;2.00;;;1.80;;
9459;SDS011;4768;42.664;23.240;2023-05-29T10:56:55;1.80;;;1.70;;
9459;SDS011;4768;42.664;23.240;2023-05-29T10:59:22;2.13;;;1.93;;
9459;SDS011;4768;42.664;23.240;2023-05-29T11:01:52;1.93;;;1.73;;
9459;SDS011;4768;42.664;23.240;2023-05-29T11:04:26;2.20;;;1.70;;
9459;SDS011;4768;42.664;23.240;2023-05-29T11:06:55;2.40;;;1.70;;
9459;SDS011;4768;42.664;23.240;2023-05-29T11:09:29;4.97;;;2.37;;
9459;SDS011;4768;42.664;23.240;2023-05-29T11:12:13;3.90;;;2.00;;
9459;SDS011;4768;42.664;23.240;2023-05-29T11:14:53;2.73;;;2.20;;
9459;SDS011;4768;42.664;23.240;2023-05-29T11:17:30;3.63;;;2.27;;
9459;SDS011;4768;42.664;23.240;2023-05-29T11:20:00;4.33;;;1.73;;
9459;SDS011;4768;42.664;23.240;2023-05-29T11:22:34;1.97;;;1.80;;
9459;SDS011;4768;42.664;23.240;2023-05-29T11:25:20;2.03;;;1.77;;
9459;SDS011;4768;42.664;23.240;2023-05-29T11:27:47;1.90;;;1.80;;
9459;SDS011;4768;42.664;23.240;2023-05-29T11:30:14;2.10;;;1.90;;
9459;SDS011;4768;42.664;23.240;2023-05-29T11:32:41;2.20;;;2.00;;
9459;SDS011;4768;42.664;23.240;2023-05-29T11:35:11;2.93;;;1.97;;
9459;SDS011;4768;42.664;23.240;2023-05-29T11:37:40;3.47;;;2.10;;
9459;SDS011;4768;42.664;23.240;2023-05-29T11:40:11;3.40;;;2.00;;
9459;SDS011;4768;42.664;23.240;2023-05-29T11:42:40;2.08;;;1.88;;
9459;SDS011;4768;42.664;23.240;2023-05-29T11:45:09;2.45;;;1.85;;
9459;SDS011;4768;42.664;23.240;2023-05-29T11:47:53;3.42;;;1.55;;
9459;SDS011;4768;42.664;23.240;2023-05-29T11:50:21;1.70;;;1.45;;
9459;SDS011;4768;42.664;23.240;2023-05-29T11:52:50;1.83;;;1.70;;
9459;SDS011;4768;42.664;23.240;2023-05-29T11:55:17;2.17;;;1.90;;
9459;SDS011;4768;42.664;23.240;2023-05-29T11:57:45;3.05;;;2.22;;
9459;SDS011;4768;42.664;23.240;2023-05-29T12:00:13;1.98;;;1.70;;
9459;SDS011;4768;42.664;23.240;2023-05-29T12:02:40;1.98;;;1.80;;
9459;SDS011;4768;42.664;23.240;2023-05-29T12:05:09;3.72;;;1.77;;
9459;SDS011;4768;42.664;23.240;2023-05-29T12:07:46;3.20;;;1.90;;
9459;SDS011;4768;42.664;23.240;2023-05-29T12:10:15;1.98;;;1.80;;
9459;SDS011;4768;42.664;23.240;2023-05-29T12:12:46;1.80;;;1.70;;
9459;SDS011;4768;42.664;23.240;2023-05-29T12:15:13;3.97;;;2.27;;
9459;SDS011;4768;42.664;23.240;2023-05-29T12:17:40;2.27;;;2.03;;
9459;SDS011;4768;42.664;23.240;2023-05-29T12:20:09;2.70;;;2.20;;
9459;SDS011;4768;42.664;23.240;2023-05-29T12:22:38;2.83;;;2.00;;
9459;SDS011;4768;42.664;23.240;2023-05-29T12:25:06;2.57;;;2.17;;
9459;SDS011;4768;42.664;23.240;2023-05-29T12:27:35;2.47;;;2.27;;
9459;SDS011;4768;42.664;23.240;2023-05-29T12:30:07;4.17;;;2.20;;
9459;SDS011;4768;42.664;23.240;2023-05-29T12:32:35;2.40;;;2.20;;
9459;SDS011;4768;42.664;23.240;2023-05-29T12:35:12;3.10;;;2.10;;
9459;SDS011;4768;42.664;23.240;2023-05-29T12:37:44;0.10;;;0.10;;
9459;SDS011;4768;42.664;23.240;2023-05-29T12:40:14;0.20;;;0.17;;
9459;SDS011;4768;42.664;23.240;2023-05-29T12:42:44;0.23;;;0.07;;
9459;SDS011;4768;42.664;23.240;2023-05-29T12:45:11;0.20;;;0.20;;
9459;SDS011;4768;42.664;23.240;2023-05-29T12:47:44;0.23;;;0.10;;
9459;SDS011;4768;42.664;23.240;2023-05-29T12:50:21;1.70;;;0.50;;
9459;SDS011;4768;42.664;23.240;2023-05-29T12:52:52;0.10;;;0.10;;
9459;SDS011;4768;42.664;23.240;2023-05-29T12:55:20;0.30;;;0.20;;
9459;SDS011;4768;42.664;23.240;2023-05-29T12:57:48;0.23;;;0.23;;
9459;SDS011;4768;42.664;23.240;2023-05-29T13:00:15;0.37;;;0.07;;
9459;SDS011;4768;42.664;23.240;2023-05-29T13:02:43;0.53;;;0.53;;
9459;SDS011;4768;42.664;23.240;2023-05-29T13:05:10;0.50;;;0.37;;
9459;SDS011;4768;42.664;23.240;2023-05-29T13:07:37;0.00;;;0.00;;
9459;SDS011;4768;42.664;23.240;2023-05-29T13:10:05;0.20;;;0.20;;
9459;SDS011;4768;42.664;23.240;2023-05-29T13:12:32;0.00;;;0.00;;
9459;SDS011;4768;42.664;23.240;2023-05-29T13:15:00;0.23;;;0.10;;
9459;SDS011;4768;42.664;23.240;2023-05-29T13:17:27;0.53;;;0.23;;
9459;SDS011;4768;42.664;23.240;2023-05-29T13:19:53;0.20;;;0.20;;
9459;SDS011;4768;42.664;23.240;2023-05-29T13:22:20;0.00;;;0.00;;
9459;SDS011;4768;42.664;23.240;2023-05-29T13:24:47;0.20;;;0.20;;
9459;SDS011;4768;42.664;23.240;2023-05-29T13:27:13;0.10;;;0.10;;
9459;SDS011;4768;42.664;23.240;2023-05-29T13:29:41;0.07;;;0.07;;
9459;SDS011;4768;42.664;23.240;2023-05-29T13:32:09;0.10;;;0.10;;
9459;SDS011;4768;42.664;23.240;2023-05-29T13:34:36;0.20;;;0.10;;
9459;SDS011;4768;42.664;23.240;2023-05-29T13:37:03;0.20;;;0.20;;
9459;SDS011;4768;42.664;23.240;2023-05-29T13:39:30;0.17;;;0.17;;
9459;SDS011;4768;42.664;23.240;2023-05-29T13:41:57;1.90;;;0.47;;
9459;SDS011;4768;42.664;23.240;2023-05-29T13:44:24;0.20;;;0.20;;
9459;SDS011;4768;42.664;23.240;2023-05-29T13:46:50;1.27;;;0.20;;
9459;SDS011;4768;42.664;23.240;2023-05-29T13:49:18;0.10;;;0.10;;
9459;SDS011;4768;42.664;23.240;2023-05-29T13:51:46;0.20;;;0.20;;
9459;SDS011;4768;42.664;23.240;2023-05-29T13:54:15;1.00;;;0.23;;
9459;SDS011;4768;42.664;23.240;2023-05-29T13:56:42;0.20;;;0.20;;
9459;SDS011;4768;42.664;23.240;2023-05-29T13:59:09;0.10;;;0.10;;
9459;SDS011;4768;42.664;23.240;2023-05-29T14:01:36;1.80;;;0.10;;
9459;SDS011;4768;42.664;23.240;2023-05-29T14:04:03;0.50;;;0.30;;
9459;SDS011;4768;42.664;23.240;2023-05-29T14:06:31;0.10;;;0.10;;
9459;SDS011;4768;42.664;23.240;2023-05-29T14:08:59;0.00;;;0.00;;
9459;SDS011;4768;42.664;23.240;2023-05-29T14:11:26;0.03;;;0.03;;
9459;SDS011;4768;42.664;23.240;2023-05-29T14:13:53;0.03;;;0.03;;
9459;SDS011;4768;42.664;23.240;2023-05-29T14:16:20;0.10;;;0.10;;
9459;SDS011;4768;42.664;23.240;2023-05-29T14:18:46;0.40;;;0.40;;
9459;SDS011;4768;42.664;23.240;2023-05-29T14:21:15;0.00;;;0.00;;
9459;SDS011;4768;42.664;23.240;2023-05-29T14:23:43;0.07;;;0.00;;
9459;SDS011;4768;42.664;23.240;2023-05-29T14:26:09;0.10;;;0.10;;
9459;SDS011;4768;42.664;23.240;2023-05-29T14:28:36;0.10;;;0.00;;
9459;SDS011;4768;42.664;23.240;2023-05-29T14:31:04;0.40;;;0.27;;
9459;SDS011;4768;42.664;23.240;2023-05-29T14:33:31;0.53;;;0.10;;
9459;SDS011;4768;42.664;23.240;2023-05-29T14:36:01;0.10;;;0.10;;
9459;SDS011;4768;42.664;23.240;2023-05-29T14:38:30;0.00;;;0.00;;
9459;SDS011;4768;42.664;23.240;2023-05-29T14:40:58;0.00;;;0.00;;
9459;SDS011;4768;42.664;23.240;2023-05-29T14:43:25;0.10;;;0.10;;
9459;SDS011;4768;42.664;23.240;2023-05-29T14:45:52;0.20;;;0.20;;
9459;SDS011;4768;42.664;23.240;2023-05-29T14:48:18;0.00;;;0.00;;
9459;SDS011;4768;42.664;23.240;2023-05-29T14:50:46;0.47;;;0.10;;
9459;SDS011;4768;42.664;23.240;2023-05-29T14:53:12;0.10;;;0.10;;
9459;SDS011;4768;42.664;23.240;2023-05-29T14:55:39;0.07;;;0.07;;
9459;SDS011;4768;42.664;23.240;2023-05-29T14:58:07;0.07;;;0.07;;
9459;SDS011;4768;42.664;23.240;2023-05-29T15:00:35;0.00;;;0.00;;
9459;SDS011;4768;42.664;23.240;2023-05-29T15:03:01;1.53;;;1.27;;
9459;SDS011;4768;42.664;23.240;2023-05-29T15:05:28;0.63;;;0.50;;
9459;SDS011;4768;42.664;23.240;2023-05-29T15:07:55;0.03;;;0.03;;
9459;SDS011;4768;42.664;23.240;2023-05-29T15:10:22;0.00;;;0.00;;